FNLUFNBG

Guest
Details From FNLU - Luanda 4 De Fevereiro
To FNBG - Benguela
Flight Number -
Tags Generated
Created
Modified
Stats Distance 226 nm / 419 km
Max Altitude 0 ft / 0 m
Waypoints 3
Social Downloads 2
Likes 0
Share VATSIM

Download

Looking for another format? Having issues loading an existing format? Contact us
Advertisement - Login to hide

Notes

Generated

Route

FNLU BG FNBG

ID Type Via Altitude Latitude Longitude Leg Dist Tot Dist Heading (true) Name
O FNLU APT - 0 ft / 0 m -8.85561˚ 13.22570˚ - 0 nm - LUANDA 4 DE FEVEREIRO
BG NDB - 0 ft / 0 m -12.60813˚ 13.40540˚ 225 nm 225 nm 177° / 177° BENGUELA NDB
O FNBG APT - 0 ft / 0 m -12.60436˚ 13.39808˚ 0 nm 226 nm 298° / 298° -

Altitude Profile

Advertisement - Login to hide

Weather


0- 5 10 15 20 25 30 35+ Temperature / ° C

Clouds and Precipitation
Forecast for 2017-12-13 06:00 UTC. Updated 11 minutes ago

Ground ~20,000 ft ~40,000 ft Winds

FNLU

Details ICAO FNLU (LAD)
Name LUANDA 4 DE FEVEREIRO
Region Angola
Timezone Africa/Luanda (UTC+1.0)
Stats Elevation 243 ft / 74 m (AMSL)
Location -8.858377° 13.231178°
Runways 2
Magnetic Variation 3.483° W

METAR

FNLU 130500Z 15004KT 8000 FEW020 SCT070 26/23 Q1011 NOSIG

Decode

TAF

TAF TAF FNLU 121700Z 1218/1324 27010KT 9999 FEW020 BECMG 1221/1224 VRB03KT BKN040 TEMPO 1303/1310 9000 BKN050 BECMG 1312/1314 27010KT 9999 SCT022 TEMPO 1318/1322 22005KT

Decode

Departure Runways

ID Width Length Bearing (true) Bearing (mag) Surface Threshold Offset Overrun Length
05 148 ft / 45 m 12,153 ft / 3,704 m 46.63° 50.11° Asphalt 0 ft / 0 m 0 ft / 0 m
07 197 ft / 60 m 8,176 ft / 2,492 m 67.40° 70.88° Asphalt 0 ft / 0 m 176 ft / 54 m
23 148 ft / 45 m 12,153 ft / 3,704 m 226.62° 230.10° Asphalt 500 ft / 152 m 0 ft / 0 m
25 197 ft / 60 m 8,176 ft / 2,492 m 247.40° 250.88° Asphalt 0 ft / 0 m 0 ft / 0 m

FNBG

Details ICAO FNBG (BUG)
Name BENGUELA
Region Angola
Timezone Africa/Luanda (UTC+1.0)
Stats Elevation 118 ft / 36 m (AMSL)
Location -12.609023° 13.403712°
Runways 1
Magnetic Variation 5.149° W

METAR

FNBG 130500Z 00000KT 9999 FEW020 BKN100 24/20 Q1013

Decode

TAF

TAF FNBG 122245Z 1300/1312 22006KT 8000 BKN020 TEMPO 1303/1307 VRB03KT 9999 FEW020 OVC040 BECMG 1309/1311 28008KT FEW016 SCT020 BKN050

Decode

Destination Runways

ID Width Length Bearing (true) Bearing (mag) Surface Threshold Offset Overrun Length
14 100 ft / 30 m 5,263 ft / 1,604 m 130.28° 135.43° Asphalt 0 ft / 0 m 328 ft / 100 m
32 100 ft / 30 m 5,263 ft / 1,604 m 310.28° 315.43° Asphalt 0 ft / 0 m 185 ft / 56 m

Popular Alternatives